sensor_id;sensor_type;location;lat;lon;timestamp;P1;durP1;ratioP1;P2;durP2;ratioP2
21095;SDS011;10706;49.036;12.112;2022-12-07T00:01:38;14.90;;;5.40;;
21095;SDS011;10706;49.036;12.112;2022-12-07T00:04:07;14.70;;;5.77;;
21095;SDS011;10706;49.036;12.112;2022-12-07T00:06:38;13.47;;;5.43;;
21095;SDS011;10706;49.036;12.112;2022-12-07T00:09:08;14.27;;;5.40;;
21095;SDS011;10706;49.036;12.112;2022-12-07T00:11:37;14.27;;;6.10;;
21095;SDS011;10706;49.036;12.112;2022-12-07T00:14:04;13.30;;;5.37;;
21095;SDS011;10706;49.036;12.112;2022-12-07T00:16:34;12.20;;;5.00;;
21095;SDS011;10706;49.036;12.112;2022-12-07T00:19:02;13.87;;;5.60;;
21095;SDS011;10706;49.036;12.112;2022-12-07T00:21:33;13.00;;;5.83;;
21095;SDS011;10706;49.036;12.112;2022-12-07T00:24:00;12.47;;;5.40;;
21095;SDS011;10706;49.036;12.112;2022-12-07T00:26:30;14.30;;;5.73;;
21095;SDS011;10706;49.036;12.112;2022-12-07T00:29:04;13.33;;;5.83;;
21095;SDS011;10706;49.036;12.112;2022-12-07T00:31:36;13.27;;;5.47;;
21095;SDS011;10706;49.036;12.112;2022-12-07T00:34:05;14.00;;;5.67;;
21095;SDS011;10706;49.036;12.112;2022-12-07T00:36:43;14.20;;;5.70;;
21095;SDS011;10706;49.036;12.112;2022-12-07T00:39:09;14.77;;;5.70;;
21095;SDS011;10706;49.036;12.112;2022-12-07T00:41:35;11.20;;;5.07;;
21095;SDS011;10706;49.036;12.112;2022-12-07T00:44:00;12.33;;;5.30;;
21095;SDS011;10706;49.036;12.112;2022-12-07T00:46:26;15.37;;;6.00;;
21095;SDS011;10706;49.036;12.112;2022-12-07T00:48:53;13.63;;;4.97;;
21095;SDS011;10706;49.036;12.112;2022-12-07T00:51:20;13.60;;;5.63;;
21095;SDS011;10706;49.036;12.112;2022-12-07T00:53:48;12.80;;;5.37;;
21095;SDS011;10706;49.036;12.112;2022-12-07T00:56:16;13.33;;;6.00;;
21095;SDS011;10706;49.036;12.112;2022-12-07T00:58:49;13.50;;;5.80;;
21095;SDS011;10706;49.036;12.112;2022-12-07T01:01:24;14.40;;;5.37;;
21095;SDS011;10706;49.036;12.112;2022-12-07T01:03:53;13.07;;;5.53;;
21095;SDS011;10706;49.036;12.112;2022-12-07T01:06:20;12.83;;;5.90;;
21095;SDS011;10706;49.036;12.112;2022-12-07T01:08:47;14.07;;;6.23;;
21095;SDS011;10706;49.036;12.112;2022-12-07T01:11:16;12.27;;;5.87;;
21095;SDS011;10706;49.036;12.112;2022-12-07T01:13:44;12.50;;;5.60;;
21095;SDS011;10706;49.036;12.112;2022-12-07T01:16:14;15.80;;;6.53;;
21095;SDS011;10706;49.036;12.112;2022-12-07T01:18:42;15.93;;;6.50;;
21095;SDS011;10706;49.036;12.112;2022-12-07T01:21:13;15.13;;;6.73;;
21095;SDS011;10706;49.036;12.112;2022-12-07T01:23:46;12.80;;;5.40;;
21095;SDS011;10706;49.036;12.112;2022-12-07T01:26:13;14.90;;;6.03;;
21095;SDS011;10706;49.036;12.112;2022-12-07T01:28:43;16.97;;;6.93;;
21095;SDS011;10706;49.036;12.112;2022-12-07T01:31:10;15.23;;;6.50;;
21095;SDS011;10706;49.036;12.112;2022-12-07T01:33:42;15.53;;;6.27;;
21095;SDS011;10706;49.036;12.112;2022-12-07T01:36:18;15.87;;;6.80;;
21095;SDS011;10706;49.036;12.112;2022-12-07T01:38:50;12.53;;;5.60;;
21095;SDS011;10706;49.036;12.112;2022-12-07T01:41:21;13.73;;;5.93;;
21095;SDS011;10706;49.036;12.112;2022-12-07T01:46:55;13.80;;;6.33;;
21095;SDS011;10706;49.036;12.112;2022-12-07T01:54:50;13.87;;;6.50;;
21095;SDS011;10706;49.036;12.112;2022-12-07T01:57:22;17.53;;;6.93;;
21095;SDS011;10706;49.036;12.112;2022-12-07T01:59:48;15.20;;;6.10;;
21095;SDS011;10706;49.036;12.112;2022-12-07T02:02:22;14.67;;;6.47;;
21095;SDS011;10706;49.036;12.112;2022-12-07T02:04:56;17.67;;;6.93;;
21095;SDS011;10706;49.036;12.112;2022-12-07T02:07:24;14.13;;;6.03;;
21095;SDS011;10706;49.036;12.112;2022-12-07T02:09:51;15.80;;;6.60;;
21095;SDS011;10706;49.036;12.112;2022-12-07T02:12:17;16.63;;;6.83;;
21095;SDS011;10706;49.036;12.112;2022-12-07T02:14:45;15.33;;;6.90;;
21095;SDS011;10706;49.036;12.112;2022-12-07T02:17:23;14.63;;;6.23;;
21095;SDS011;10706;49.036;12.112;2022-12-07T02:20:06;17.53;;;7.30;;
21095;SDS011;10706;49.036;12.112;2022-12-07T02:30:54;14.87;;;6.50;;
21095;SDS011;10706;49.036;12.112;2022-12-07T02:33:34;14.90;;;6.30;;
21095;SDS011;10706;49.036;12.112;2022-12-07T02:36:28;17.20;;;7.53;;
21095;SDS011;10706;49.036;12.112;2022-12-07T02:39:03;14.77;;;6.97;;
21095;SDS011;10706;49.036;12.112;2022-12-07T02:41:40;15.03;;;6.30;;
21095;SDS011;10706;49.036;12.112;2022-12-07T02:44:13;17.27;;;7.33;;
21095;SDS011;10706;49.036;12.112;2022-12-07T02:46:44;15.50;;;6.40;;
21095;SDS011;10706;49.036;12.112;2022-12-07T02:49:21;17.57;;;7.17;;
21095;SDS011;10706;49.036;12.112;2022-12-07T02:51:49;16.60;;;6.47;;
21095;SDS011;10706;49.036;12.112;2022-12-07T02:54:16;15.97;;;7.37;;
21095;SDS011;10706;49.036;12.112;2022-12-07T03:11:14;15.33;;;7.07;;
21095;SDS011;10706;49.036;12.112;2022-12-07T03:13:58;16.70;;;7.00;;
21095;SDS011;10706;49.036;12.112;2022-12-07T03:16:53;16.17;;;6.97;;
21095;SDS011;10706;49.036;12.112;2022-12-07T03:19:41;16.93;;;7.30;;
21095;SDS011;10706;49.036;12.112;2022-12-07T03:22:11;17.43;;;7.23;;
21095;SDS011;10706;49.036;12.112;2022-12-07T03:24:41;18.87;;;8.00;;
21095;SDS011;10706;49.036;12.112;2022-12-07T03:27:21;19.23;;;7.67;;
21095;SDS011;10706;49.036;12.112;2022-12-07T03:29:54;17.20;;;6.97;;
21095;SDS011;10706;49.036;12.112;2022-12-07T03:32:40;19.50;;;7.87;;
21095;SDS011;10706;49.036;12.112;2022-12-07T03:35:27;18.30;;;8.03;;
21095;SDS011;10706;49.036;12.112;2022-12-07T03:40:57;16.73;;;7.87;;
21095;SDS011;10706;49.036;12.112;2022-12-07T03:43:24;16.43;;;7.40;;
21095;SDS011;10706;49.036;12.112;2022-12-07T03:48:41;17.83;;;8.10;;
21095;SDS011;10706;49.036;12.112;2022-12-07T03:51:30;17.63;;;7.23;;
21095;SDS011;10706;49.036;12.112;2022-12-07T03:54:23;19.53;;;7.27;;
21095;SDS011;10706;49.036;12.112;2022-12-07T03:56:54;16.63;;;7.63;;
21095;SDS011;10706;49.036;12.112;2022-12-07T03:59:22;17.73;;;8.47;;
21095;SDS011;10706;49.036;12.112;2022-12-07T04:01:53;17.63;;;7.77;;
21095;SDS011;10706;49.036;12.112;2022-12-07T04:04:22;17.90;;;7.83;;
21095;SDS011;10706;49.036;12.112;2022-12-07T04:06:49;20.03;;;7.80;;
21095;SDS011;10706;49.036;12.112;2022-12-07T04:09:15;17.97;;;8.03;;
21095;SDS011;10706;49.036;12.112;2022-12-07T04:11:41;16.90;;;7.23;;
21095;SDS011;10706;49.036;12.112;2022-12-07T04:14:07;14.83;;;7.13;;
21095;SDS011;10706;49.036;12.112;2022-12-07T04:16:53;16.97;;;7.60;;
21095;SDS011;10706;49.036;12.112;2022-12-07T04:19:29;19.83;;;8.07;;
21095;SDS011;10706;49.036;12.112;2022-12-07T04:21:59;19.00;;;7.97;;
21095;SDS011;10706;49.036;12.112;2022-12-07T04:24:26;19.30;;;8.47;;
21095;SDS011;10706;49.036;12.112;2022-12-07T04:26:53;17.67;;;7.40;;
21095;SDS011;10706;49.036;12.112;2022-12-07T04:29:19;20.30;;;7.93;;
21095;SDS011;10706;49.036;12.112;2022-12-07T04:31:45;16.57;;;7.67;;
21095;SDS011;10706;49.036;12.112;2022-12-07T04:34:10;16.60;;;7.50;;
21095;SDS011;10706;49.036;12.112;2022-12-07T04:36:38;17.87;;;8.40;;
21095;SDS011;10706;49.036;12.112;2022-12-07T04:39:05;15.63;;;7.73;;
21095;SDS011;10706;49.036;12.112;2022-12-07T04:41:32;18.63;;;8.20;;
21095;SDS011;10706;49.036;12.112;2022-12-07T04:43:59;19.27;;;8.07;;
21095;SDS011;10706;49.036;12.112;2022-12-07T04:46:28;22.87;;;8.57;;
21095;SDS011;10706;49.036;12.112;2022-12-07T04:48:56;22.13;;;9.73;;
21095;SDS011;10706;49.036;12.112;2022-12-07T04:51:24;18.83;;;8.17;;
21095;SDS011;10706;49.036;12.112;2022-12-07T04:53:54;20.53;;;9.17;;
21095;SDS011;10706;49.036;12.112;2022-12-07T04:56:21;20.60;;;9.30;;
21095;SDS011;10706;49.036;12.112;2022-12-07T04:58:48;20.43;;;8.63;;
21095;SDS011;10706;49.036;12.112;2022-12-07T05:01:15;17.27;;;8.60;;
21095;SDS011;10706;49.036;12.112;2022-12-07T05:03:42;19.70;;;9.30;;
21095;SDS011;10706;49.036;12.112;2022-12-07T05:06:08;21.03;;;8.67;;
21095;SDS011;10706;49.036;12.112;2022-12-07T05:08:36;21.30;;;9.33;;
21095;SDS011;10706;49.036;12.112;2022-12-07T05:11:02;20.83;;;9.43;;
21095;SDS011;10706;49.036;12.112;2022-12-07T05:13:31;21.17;;;9.80;;
21095;SDS011;10706;49.036;12.112;2022-12-07T05:15:57;22.10;;;9.60;;
21095;SDS011;10706;49.036;12.112;2022-12-07T05:18:23;20.30;;;9.33;;
21095;SDS011;10706;49.036;12.112;2022-12-07T05:20:49;19.40;;;8.83;;
21095;SDS011;10706;49.036;12.112;2022-12-07T05:23:16;20.70;;;9.13;;
21095;SDS011;10706;49.036;12.112;2022-12-07T05:25:42;21.50;;;8.60;;
21095;SDS011;10706;49.036;12.112;2022-12-07T05:28:09;21.13;;;9.90;;
21095;SDS011;10706;49.036;12.112;2022-12-07T05:30:35;22.27;;;9.53;;
21095;SDS011;10706;49.036;12.112;2022-12-07T05:33:01;20.87;;;9.73;;
21095;SDS011;10706;49.036;12.112;2022-12-07T05:35:28;23.50;;;9.67;;
21095;SDS011;10706;49.036;12.112;2022-12-07T05:37:54;22.77;;;9.47;;
21095;SDS011;10706;49.036;12.112;2022-12-07T05:40:21;19.80;;;8.53;;
21095;SDS011;10706;49.036;12.112;2022-12-07T05:42:47;20.93;;;9.00;;
21095;SDS011;10706;49.036;12.112;2022-12-07T05:45:13;22.07;;;9.70;;
21095;SDS011;10706;49.036;12.112;2022-12-07T05:47:39;19.57;;;8.40;;
21095;SDS011;10706;49.036;12.112;2022-12-07T05:50:05;20.60;;;8.53;;
21095;SDS011;10706;49.036;12.112;2022-12-07T05:52:31;21.07;;;9.17;;
21095;SDS011;10706;49.036;12.112;2022-12-07T05:54:57;21.73;;;8.87;;
21095;SDS011;10706;49.036;12.112;2022-12-07T05:57:23;22.17;;;9.00;;
21095;SDS011;10706;49.036;12.112;2022-12-07T05:59:49;18.63;;;8.20;;
21095;SDS011;10706;49.036;12.112;2022-12-07T06:02:15;25.93;;;10.10;;
21095;SDS011;10706;49.036;12.112;2022-12-07T06:04:43;18.33;;;8.37;;
21095;SDS011;10706;49.036;12.112;2022-12-07T06:07:11;20.17;;;8.43;;
21095;SDS011;10706;49.036;12.112;2022-12-07T06:09:39;20.40;;;9.23;;
21095;SDS011;10706;49.036;12.112;2022-12-07T06:12:06;22.30;;;9.93;;
21095;SDS011;10706;49.036;12.112;2022-12-07T06:14:53;22.07;;;9.33;;
21095;SDS011;10706;49.036;12.112;2022-12-07T06:17:19;22.30;;;9.53;;
21095;SDS011;10706;49.036;12.112;2022-12-07T06:19:45;22.87;;;9.20;;
21095;SDS011;10706;49.036;12.112;2022-12-07T06:22:11;22.13;;;9.73;;
21095;SDS011;10706;49.036;12.112;2022-12-07T06:24:37;22.07;;;8.93;;
21095;SDS011;10706;49.036;12.112;2022-12-07T06:27:05;23.13;;;9.17;;
21095;SDS011;10706;49.036;12.112;2022-12-07T06:29:31;22.77;;;8.97;;
21095;SDS011;10706;49.036;12.112;2022-12-07T06:31:57;23.70;;;10.53;;
21095;SDS011;10706;49.036;12.112;2022-12-07T06:34:24;20.03;;;8.97;;
21095;SDS011;10706;49.036;12.112;2022-12-07T06:36:51;23.27;;;9.87;;
21095;SDS011;10706;49.036;12.112;2022-12-07T06:39:19;19.83;;;9.07;;
21095;SDS011;10706;49.036;12.112;2022-12-07T06:41:52;26.03;;;11.00;;
21095;SDS011;10706;49.036;12.112;2022-12-07T06:44:18;23.90;;;10.10;;
21095;SDS011;10706;49.036;12.112;2022-12-07T06:46:45;23.57;;;9.33;;
21095;SDS011;10706;49.036;12.112;2022-12-07T06:49:11;24.53;;;9.50;;
21095;SDS011;10706;49.036;12.112;2022-12-07T06:51:37;20.23;;;10.27;;
21095;SDS011;10706;49.036;12.112;2022-12-07T06:54:06;22.37;;;9.43;;
21095;SDS011;10706;49.036;12.112;2022-12-07T06:56:37;20.37;;;9.53;;
21095;SDS011;10706;49.036;12.112;2022-12-07T06:59:03;19.33;;;8.57;;
21095;SDS011;10706;49.036;12.112;2022-12-07T07:01:31;21.53;;;8.90;;
21095;SDS011;10706;49.036;12.112;2022-12-07T07:03:57;21.60;;;8.83;;
21095;SDS011;10706;49.036;12.112;2022-12-07T07:06:24;20.63;;;9.23;;
21095;SDS011;10706;49.036;12.112;2022-12-07T07:08:50;24.67;;;10.20;;
21095;SDS011;10706;49.036;12.112;2022-12-07T07:11:16;24.60;;;11.07;;
21095;SDS011;10706;49.036;12.112;2022-12-07T07:13:42;22.70;;;9.60;;
21095;SDS011;10706;49.036;12.112;2022-12-07T07:16:07;25.57;;;10.30;;
21095;SDS011;10706;49.036;12.112;2022-12-07T07:18:34;25.03;;;10.47;;
21095;SDS011;10706;49.036;12.112;2022-12-07T07:21:00;24.63;;;9.87;;
21095;SDS011;10706;49.036;12.112;2022-12-07T07:23:26;23.63;;;10.20;;
21095;SDS011;10706;49.036;12.112;2022-12-07T07:25:52;22.80;;;9.63;;
21095;SDS011;10706;49.036;12.112;2022-12-07T07:28:18;21.63;;;9.50;;
21095;SDS011;10706;49.036;12.112;2022-12-07T07:30:44;24.77;;;11.17;;
21095;SDS011;10706;49.036;12.112;2022-12-07T07:33:10;25.20;;;10.87;;
21095;SDS011;10706;49.036;12.112;2022-12-07T07:35:36;22.23;;;10.53;;
21095;SDS011;10706;49.036;12.112;2022-12-07T07:38:03;29.20;;;11.93;;
21095;SDS011;10706;49.036;12.112;2022-12-07T07:40:30;23.97;;;10.43;;
21095;SDS011;10706;49.036;12.112;2022-12-07T07:42:56;28.33;;;11.27;;
21095;SDS011;10706;49.036;12.112;2022-12-07T07:45:23;23.03;;;9.63;;
21095;SDS011;10706;49.036;12.112;2022-12-07T07:47:50;25.37;;;10.17;;
21095;SDS011;10706;49.036;12.112;2022-12-07T07:50:17;23.43;;;9.23;;
21095;SDS011;10706;49.036;12.112;2022-12-07T07:52:43;23.53;;;11.33;;
21095;SDS011;10706;49.036;12.112;2022-12-07T07:55:09;22.20;;;9.70;;
21095;SDS011;10706;49.036;12.112;2022-12-07T07:57:37;22.43;;;9.53;;
21095;SDS011;10706;49.036;12.112;2022-12-07T08:00:04;22.00;;;10.30;;
21095;SDS011;10706;49.036;12.112;2022-12-07T08:02:33;21.77;;;9.53;;
21095;SDS011;10706;49.036;12.112;2022-12-07T08:04:59;22.43;;;9.80;;
21095;SDS011;10706;49.036;12.112;2022-12-07T08:07:26;20.43;;;8.97;;
21095;SDS011;10706;49.036;12.112;2022-12-07T08:09:53;22.73;;;10.07;;
21095;SDS011;10706;49.036;12.112;2022-12-07T08:12:18;23.17;;;9.60;;
21095;SDS011;10706;49.036;12.112;2022-12-07T08:14:44;22.70;;;9.50;;
21095;SDS011;10706;49.036;12.112;2022-12-07T08:17:10;25.53;;;9.30;;
21095;SDS011;10706;49.036;12.112;2022-12-07T08:19:37;23.27;;;9.77;;
21095;SDS011;10706;49.036;12.112;2022-12-07T08:22:03;18.43;;;8.07;;
21095;SDS011;10706;49.036;12.112;2022-12-07T08:24:29;19.10;;;9.20;;
21095;SDS011;10706;49.036;12.112;2022-12-07T08:26:54;21.60;;;9.60;;
21095;SDS011;10706;49.036;12.112;2022-12-07T08:29:20;19.23;;;7.97;;
21095;SDS011;10706;49.036;12.112;2022-12-07T08:31:46;21.83;;;9.33;;
21095;SDS011;10706;49.036;12.112;2022-12-07T08:34:12;18.20;;;8.33;;
21095;SDS011;10706;49.036;12.112;2022-12-07T08:36:38;20.03;;;8.83;;
21095;SDS011;10706;49.036;12.112;2022-12-07T08:39:04;19.23;;;7.77;;
21095;SDS011;10706;49.036;12.112;2022-12-07T08:41:30;18.90;;;9.27;;
21095;SDS011;10706;49.036;12.112;2022-12-07T08:43:57;20.30;;;9.53;;
21095;SDS011;10706;49.036;12.112;2022-12-07T08:46:33;20.93;;;9.37;;
21095;SDS011;10706;49.036;12.112;2022-12-07T08:49:14;22.00;;;11.27;;
21095;SDS011;10706;49.036;12.112;2022-12-07T08:51:45;18.17;;;8.70;;
21095;SDS011;10706;49.036;12.112;2022-12-07T08:54:14;21.23;;;9.40;;
21095;SDS011;10706;49.036;12.112;2022-12-07T08:56:43;22.60;;;9.07;;
21095;SDS011;10706;49.036;12.112;2022-12-07T08:59:12;22.67;;;9.67;;
21095;SDS011;10706;49.036;12.112;2022-12-07T09:01:41;21.07;;;9.60;;
21095;SDS011;10706;49.036;12.112;2022-12-07T09:04:08;18.90;;;8.93;;
21095;SDS011;10706;49.036;12.112;2022-12-07T09:06:34;20.17;;;8.67;;
21095;SDS011;10706;49.036;12.112;2022-12-07T09:09:00;21.20;;;8.47;;
21095;SDS011;10706;49.036;12.112;2022-12-07T09:11:27;21.13;;;8.70;;
21095;SDS011;10706;49.036;12.112;2022-12-07T09:13:53;17.57;;;7.30;;
21095;SDS011;10706;49.036;12.112;2022-12-07T09:16:19;19.07;;;8.30;;
21095;SDS011;10706;49.036;12.112;2022-12-07T09:18:45;22.93;;;8.30;;
21095;SDS011;10706;49.036;12.112;2022-12-07T09:21:10;20.60;;;9.33;;
21095;SDS011;10706;49.036;12.112;2022-12-07T09:23:36;22.40;;;9.60;;
21095;SDS011;10706;49.036;12.112;2022-12-07T09:26:02;20.70;;;8.30;;
21095;SDS011;10706;49.036;12.112;2022-12-07T09:28:32;18.23;;;8.43;;
21095;SDS011;10706;49.036;12.112;2022-12-07T09:30:58;16.97;;;8.30;;
21095;SDS011;10706;49.036;12.112;2022-12-07T09:33:24;20.60;;;9.07;;
21095;SDS011;10706;49.036;12.112;2022-12-07T09:35:50;19.83;;;8.20;;
21095;SDS011;10706;49.036;12.112;2022-12-07T09:38:18;19.80;;;8.53;;
21095;SDS011;10706;49.036;12.112;2022-12-07T09:40:45;18.17;;;7.93;;
21095;SDS011;10706;49.036;12.112;2022-12-07T09:43:17;20.27;;;7.90;;
21095;SDS011;10706;49.036;12.112;2022-12-07T09:45:47;20.53;;;8.80;;
21095;SDS011;10706;49.036;12.112;2022-12-07T09:48:20;20.63;;;8.87;;
21095;SDS011;10706;49.036;12.112;2022-12-07T09:51:00;19.17;;;8.23;;
21095;SDS011;10706;49.036;12.112;2022-12-07T09:53:34;20.47;;;8.50;;
21095;SDS011;10706;49.036;12.112;2022-12-07T09:56:03;19.43;;;8.27;;
21095;SDS011;10706;49.036;12.112;2022-12-07T09:58:30;17.50;;;7.57;;
21095;SDS011;10706;49.036;12.112;2022-12-07T10:01:05;19.00;;;8.17;;
21095;SDS011;10706;49.036;12.112;2022-12-07T10:03:45;22.57;;;8.97;;
21095;SDS011;10706;49.036;12.112;2022-12-07T10:06:17;18.33;;;7.83;;
21095;SDS011;10706;49.036;12.112;2022-12-07T10:08:43;20.40;;;8.03;;
21095;SDS011;10706;49.036;12.112;2022-12-07T10:11:09;21.20;;;8.10;;
21095;SDS011;10706;49.036;12.112;2022-12-07T10:13:41;21.90;;;8.37;;
21095;SDS011;10706;49.036;12.112;2022-12-07T10:16:30;19.77;;;8.23;;
21095;SDS011;10706;49.036;12.112;2022-12-07T10:22:03;21.00;;;8.50;;
21095;SDS011;10706;49.036;12.112;2022-12-07T10:24:30;20.23;;;8.37;;
21095;SDS011;10706;49.036;12.112;2022-12-07T10:26:56;19.00;;;7.43;;
21095;SDS011;10706;49.036;12.112;2022-12-07T10:34:31;19.90;;;8.03;;
21095;SDS011;10706;49.036;12.112;2022-12-07T10:37:16;17.70;;;7.47;;
21095;SDS011;10706;49.036;12.112;2022-12-07T10:50:47;18.20;;;7.27;;
21095;SDS011;10706;49.036;12.112;2022-12-07T10:53:44;20.17;;;7.33;;
21095;SDS011;10706;49.036;12.112;2022-12-07T10:59:21;18.53;;;6.93;;
21095;SDS011;10706;49.036;12.112;2022-12-07T11:05:31;17.00;;;6.67;;
21095;SDS011;10706;49.036;12.112;2022-12-07T11:13:56;17.40;;;6.57;;
21095;SDS011;10706;49.036;12.112;2022-12-07T11:22:51;17.27;;;6.07;;
21095;SDS011;10706;49.036;12.112;2022-12-07T11:26:04;15.40;;;5.83;;
21095;SDS011;10706;49.036;12.112;2022-12-07T11:37:40;19.63;;;7.17;;
21095;SDS011;10706;49.036;12.112;2022-12-07T11:40:18;17.37;;;6.23;;
21095;SDS011;10706;49.036;12.112;2022-12-07T11:43:05;15.03;;;5.70;;
21095;SDS011;10706;49.036;12.112;2022-12-07T11:45:54;17.00;;;5.20;;
21095;SDS011;10706;49.036;12.112;2022-12-07T11:48:45;14.63;;;5.67;;
21095;SDS011;10706;49.036;12.112;2022-12-07T11:51:15;12.73;;;4.93;;
21095;SDS011;10706;49.036;12.112;2022-12-07T11:53:51;14.40;;;6.13;;
21095;SDS011;10706;49.036;12.112;2022-12-07T11:56:26;13.10;;;4.87;;
21095;SDS011;10706;49.036;12.112;2022-12-07T11:58:55;14.07;;;5.47;;
21095;SDS011;10706;49.036;12.112;2022-12-07T12:06:39;13.40;;;5.80;;
21095;SDS011;10706;49.036;12.112;2022-12-07T12:22:59;14.00;;;5.70;;
21095;SDS011;10706;49.036;12.112;2022-12-07T12:25:42;15.30;;;6.10;;
21095;SDS011;10706;49.036;12.112;2022-12-07T12:28:18;14.50;;;5.57;;
21095;SDS011;10706;49.036;12.112;2022-12-07T12:33:45;14.27;;;6.03;;
21095;SDS011;10706;49.036;12.112;2022-12-07T12:39:07;16.43;;;5.67;;
21095;SDS011;10706;49.036;12.112;2022-12-07T12:50:12;16.63;;;6.70;;
21095;SDS011;10706;49.036;12.112;2022-12-07T12:52:49;18.27;;;6.40;;
21095;SDS011;10706;49.036;12.112;2022-12-07T12:55:18;15.70;;;5.93;;
21095;SDS011;10706;49.036;12.112;2022-12-07T12:58:21;16.87;;;6.10;;
21095;SDS011;10706;49.036;12.112;2022-12-07T13:00:43;16.63;;;6.10;;
21095;SDS011;10706;49.036;12.112;2022-12-07T13:03:27;18.57;;;5.43;;
21095;SDS011;10706;49.036;12.112;2022-12-07T13:08:45;15.13;;;5.23;;
21095;SDS011;10706;49.036;12.112;2022-12-07T13:11:25;16.40;;;5.77;;
21095;SDS011;10706;49.036;12.112;2022-12-07T13:17:10;13.80;;;5.60;;
21095;SDS011;10706;49.036;12.112;2022-12-07T13:20:01;17.27;;;6.00;;
21095;SDS011;10706;49.036;12.112;2022-12-07T13:25:36;20.20;;;5.90;;
21095;SDS011;10706;49.036;12.112;2022-12-07T13:28:01;12.47;;;5.23;;
21095;SDS011;10706;49.036;12.112;2022-12-07T13:30:58;17.23;;;6.40;;
21095;SDS011;10706;49.036;12.112;2022-12-07T13:33:41;16.90;;;6.53;;
21095;SDS011;10706;49.036;12.112;2022-12-07T13:36:14;16.47;;;6.20;;
21095;SDS011;10706;49.036;12.112;2022-12-07T13:38:58;15.70;;;6.33;;
21095;SDS011;10706;49.036;12.112;2022-12-07T13:41:35;16.80;;;6.27;;
21095;SDS011;10706;49.036;12.112;2022-12-07T13:44:02;20.83;;;6.60;;
21095;SDS011;10706;49.036;12.112;2022-12-07T13:49:48;13.90;;;5.20;;
21095;SDS011;10706;49.036;12.112;2022-12-07T13:54:58;16.87;;;5.87;;
21095;SDS011;10706;49.036;12.112;2022-12-07T13:57:29;15.47;;;5.90;;
21095;SDS011;10706;49.036;12.112;2022-12-07T13:59:58;15.70;;;5.87;;
21095;SDS011;10706;49.036;12.112;2022-12-07T14:10:35;17.20;;;5.93;;
21095;SDS011;10706;49.036;12.112;2022-12-07T14:16:03;14.93;;;5.73;;
21095;SDS011;10706;49.036;12.112;2022-12-07T14:18:50;13.93;;;5.70;;
21095;SDS011;10706;49.036;12.112;2022-12-07T14:21:17;16.50;;;5.40;;
21095;SDS011;10706;49.036;12.112;2022-12-07T14:26:41;18.17;;;5.87;;
21095;SDS011;10706;49.036;12.112;2022-12-07T14:31:53;14.70;;;5.30;;
21095;SDS011;10706;49.036;12.112;2022-12-07T14:34:20;15.40;;;5.73;;
21095;SDS011;10706;49.036;12.112;2022-12-07T14:36:47;13.10;;;5.63;;
21095;SDS011;10706;49.036;12.112;2022-12-07T14:39:13;12.70;;;5.03;;
21095;SDS011;10706;49.036;12.112;2022-12-07T14:41:39;15.00;;;6.20;;
21095;SDS011;10706;49.036;12.112;2022-12-07T14:44:17;12.67;;;5.37;;
21095;SDS011;10706;49.036;12.112;2022-12-07T14:46:45;17.47;;;5.80;;
21095;SDS011;10706;49.036;12.112;2022-12-07T14:49:12;19.10;;;6.70;;
21095;SDS011;10706;49.036;12.112;2022-12-07T14:51:39;17.10;;;6.20;;
21095;SDS011;10706;49.036;12.112;2022-12-07T14:54:11;14.13;;;5.90;;
21095;SDS011;10706;49.036;12.112;2022-12-07T14:56:45;14.30;;;5.70;;
21095;SDS011;10706;49.036;12.112;2022-12-07T14:59:15;14.77;;;6.03;;
21095;SDS011;10706;49.036;12.112;2022-12-07T15:01:42;14.93;;;5.37;;
21095;SDS011;10706;49.036;12.112;2022-12-07T15:04:08;12.33;;;5.03;;
21095;SDS011;10706;49.036;12.112;2022-12-07T15:06:33;15.13;;;5.70;;
21095;SDS011;10706;49.036;12.112;2022-12-07T15:08:59;16.03;;;5.30;;
21095;SDS011;10706;49.036;12.112;2022-12-07T15:11:25;14.60;;;5.40;;
21095;SDS011;10706;49.036;12.112;2022-12-07T15:13:51;14.60;;;5.53;;
21095;SDS011;10706;49.036;12.112;2022-12-07T15:16:36;14.53;;;5.27;;
21095;SDS011;10706;49.036;12.112;2022-12-07T15:19:10;14.07;;;5.10;;
21095;SDS011;10706;49.036;12.112;2022-12-07T15:21:51;14.43;;;5.33;;
21095;SDS011;10706;49.036;12.112;2022-12-07T15:24:17;12.77;;;5.27;;
21095;SDS011;10706;49.036;12.112;2022-12-07T15:26:44;12.50;;;5.60;;
21095;SDS011;10706;49.036;12.112;2022-12-07T15:29:10;16.67;;;5.40;;
21095;SDS011;10706;49.036;12.112;2022-12-07T15:31:36;12.07;;;4.83;;
21095;SDS011;10706;49.036;12.112;2022-12-07T15:34:03;13.70;;;5.33;;
21095;SDS011;10706;49.036;12.112;2022-12-07T15:36:32;14.40;;;5.43;;
21095;SDS011;10706;49.036;12.112;2022-12-07T15:38:59;15.10;;;5.60;;
21095;SDS011;10706;49.036;12.112;2022-12-07T15:41:25;14.83;;;5.63;;
21095;SDS011;10706;49.036;12.112;2022-12-07T15:43:51;14.37;;;5.83;;
21095;SDS011;10706;49.036;12.112;2022-12-07T15:46:37;17.03;;;6.77;;
21095;SDS011;10706;49.036;12.112;2022-12-07T15:49:08;14.93;;;5.40;;
21095;SDS011;10706;49.036;12.112;2022-12-07T15:51:38;15.53;;;5.53;;
21095;SDS011;10706;49.036;12.112;2022-12-07T15:54:04;12.50;;;4.87;;
21095;SDS011;10706;49.036;12.112;2022-12-07T15:56:30;16.47;;;6.53;;
21095;SDS011;10706;49.036;12.112;2022-12-07T15:58:56;13.63;;;5.97;;
21095;SDS011;10706;49.036;12.112;2022-12-07T16:01:22;14.10;;;6.00;;
21095;SDS011;10706;49.036;12.112;2022-12-07T16:03:48;14.77;;;6.20;;
21095;SDS011;10706;49.036;12.112;2022-12-07T16:06:17;16.53;;;6.03;;
21095;SDS011;10706;49.036;12.112;2022-12-07T16:08:44;15.23;;;6.17;;
21095;SDS011;10706;49.036;12.112;2022-12-07T16:11:11;20.27;;;6.13;;
21095;SDS011;10706;49.036;12.112;2022-12-07T16:13:38;14.37;;;5.80;;
21095;SDS011;10706;49.036;12.112;2022-12-07T16:16:05;15.67;;;6.63;;
21095;SDS011;10706;49.036;12.112;2022-12-07T16:18:34;15.23;;;6.47;;
21095;SDS011;10706;49.036;12.112;2022-12-07T16:21:00;13.13;;;5.43;;
21095;SDS011;10706;49.036;12.112;2022-12-07T16:23:26;16.60;;;6.10;;
21095;SDS011;10706;49.036;12.112;2022-12-07T16:25:52;14.27;;;5.50;;
21095;SDS011;10706;49.036;12.112;2022-12-07T16:28:18;12.77;;;5.33;;
21095;SDS011;10706;49.036;12.112;2022-12-07T16:30:44;14.00;;;5.70;;
21095;SDS011;10706;49.036;12.112;2022-12-07T16:33:10;16.00;;;6.03;;
21095;SDS011;10706;49.036;12.112;2022-12-07T16:35:39;16.07;;;5.90;;
21095;SDS011;10706;49.036;12.112;2022-12-07T16:38:06;18.00;;;6.70;;
21095;SDS011;10706;49.036;12.112;2022-12-07T16:40:32;15.67;;;6.57;;
21095;SDS011;10706;49.036;12.112;2022-12-07T16:42:58;17.37;;;6.33;;
21095;SDS011;10706;49.036;12.112;2022-12-07T16:45:23;16.00;;;6.70;;
21095;SDS011;10706;49.036;12.112;2022-12-07T16:47:49;16.63;;;6.57;;
21095;SDS011;10706;49.036;12.112;2022-12-07T16:50:15;15.37;;;6.30;;
21095;SDS011;10706;49.036;12.112;2022-12-07T16:52:41;14.07;;;6.17;;
21095;SDS011;10706;49.036;12.112;2022-12-07T16:55:07;19.07;;;6.57;;
21095;SDS011;10706;49.036;12.112;2022-12-07T16:57:33;17.53;;;7.30;;
21095;SDS011;10706;49.036;12.112;2022-12-07T16:59:59;16.70;;;6.67;;
21095;SDS011;10706;49.036;12.112;2022-12-07T17:02:25;15.07;;;5.90;;
21095;SDS011;10706;49.036;12.112;2022-12-07T17:04:51;15.90;;;5.97;;
21095;SDS011;10706;49.036;12.112;2022-12-07T17:07:16;14.63;;;6.33;;